sensor_id;sensor_type;location;lat;lon;timestamp;P1;durP1;ratioP1;P2;durP2;ratioP2
63259;SDS011;49390;51.380;0.098;2023-06-14T00:02:01;6.97;;;3.78;;
63259;SDS011;49390;51.380;0.098;2023-06-14T00:04:32;7.40;;;3.60;;
63259;SDS011;49390;51.380;0.098;2023-06-14T00:07:00;8.90;;;3.45;;
63259;SDS011;49390;51.380;0.098;2023-06-14T00:09:31;7.38;;;3.60;;
63259;SDS011;49390;51.380;0.098;2023-06-14T00:11:59;6.00;;;3.50;;
63259;SDS011;49390;51.380;0.098;2023-06-14T00:14:29;8.77;;;3.83;;
63259;SDS011;49390;51.380;0.098;2023-06-14T00:16:59;6.32;;;3.60;;
63259;SDS011;49390;51.380;0.098;2023-06-14T00:19:31;9.40;;;3.72;;
63259;SDS011;49390;51.380;0.098;2023-06-14T00:22:03;5.95;;;3.50;;
63259;SDS011;49390;51.380;0.098;2023-06-14T00:24:34;7.53;;;3.63;;
63259;SDS011;49390;51.380;0.098;2023-06-14T00:27:08;10.23;;;4.28;;
63259;SDS011;49390;51.380;0.098;2023-06-14T00:29:39;12.15;;;4.35;;
63259;SDS011;49390;51.380;0.098;2023-06-14T00:32:10;9.60;;;3.80;;
63259;SDS011;49390;51.380;0.098;2023-06-14T00:34:38;6.80;;;4.00;;
63259;SDS011;49390;51.380;0.098;2023-06-14T00:37:08;6.55;;;3.58;;
63259;SDS011;49390;51.380;0.098;2023-06-14T00:39:38;7.15;;;3.88;;
63259;SDS011;49390;51.380;0.098;2023-06-14T00:42:06;6.75;;;3.13;;
63259;SDS011;49390;51.380;0.098;2023-06-14T00:44:34;6.45;;;3.20;;
63259;SDS011;49390;51.380;0.098;2023-06-14T00:47:02;5.63;;;3.30;;
63259;SDS011;49390;51.380;0.098;2023-06-14T00:49:35;5.85;;;3.40;;
63259;SDS011;49390;51.380;0.098;2023-06-14T00:52:08;5.38;;;3.05;;
63259;SDS011;49390;51.380;0.098;2023-06-14T00:54:42;6.45;;;3.22;;
63259;SDS011;49390;51.380;0.098;2023-06-14T00:57:11;9.95;;;3.47;;
63259;SDS011;49390;51.380;0.098;2023-06-14T00:59:45;6.65;;;3.10;;
63259;SDS011;49390;51.380;0.098;2023-06-14T01:02:16;5.88;;;3.10;;
63259;SDS011;49390;51.380;0.098;2023-06-14T01:04:49;8.02;;;2.85;;
63259;SDS011;49390;51.380;0.098;2023-06-14T01:10:24;8.73;;;3.17;;
63259;SDS011;49390;51.380;0.098;2023-06-14T01:15:40;6.47;;;2.90;;
63259;SDS011;49390;51.380;0.098;2023-06-14T01:18:10;9.10;;;3.75;;
63259;SDS011;49390;51.380;0.098;2023-06-14T01:20:46;6.20;;;3.08;;
63259;SDS011;49390;51.380;0.098;2023-06-14T01:23:17;7.05;;;2.90;;
63259;SDS011;49390;51.380;0.098;2023-06-14T01:25:49;8.25;;;3.30;;
63259;SDS011;49390;51.380;0.098;2023-06-14T01:28:23;7.32;;;3.40;;
63259;SDS011;49390;51.380;0.098;2023-06-14T01:30:53;8.05;;;3.25;;
63259;SDS011;49390;51.380;0.098;2023-06-14T01:33:22;9.65;;;3.05;;
63259;SDS011;49390;51.380;0.098;2023-06-14T01:36:00;5.70;;;2.90;;
63259;SDS011;49390;51.380;0.098;2023-06-14T01:38:29;7.85;;;3.25;;
63259;SDS011;49390;51.380;0.098;2023-06-14T01:41:01;6.65;;;3.20;;
63259;SDS011;49390;51.380;0.098;2023-06-14T01:43:30;6.35;;;3.50;;
63259;SDS011;49390;51.380;0.098;2023-06-14T01:46:00;7.35;;;3.33;;
63259;SDS011;49390;51.380;0.098;2023-06-14T01:48:31;9.10;;;3.92;;
63259;SDS011;49390;51.380;0.098;2023-06-14T01:51:03;6.80;;;3.40;;
63259;SDS011;49390;51.380;0.098;2023-06-14T01:53:34;7.53;;;3.35;;
63259;SDS011;49390;51.380;0.098;2023-06-14T01:56:02;6.40;;;3.10;;
63259;SDS011;49390;51.380;0.098;2023-06-14T01:58:31;9.07;;;3.47;;
63259;SDS011;49390;51.380;0.098;2023-06-14T02:01:01;7.40;;;3.38;;
63259;SDS011;49390;51.380;0.098;2023-06-14T02:03:29;7.15;;;3.35;;
63259;SDS011;49390;51.380;0.098;2023-06-14T02:05:58;9.98;;;3.78;;
63259;SDS011;49390;51.380;0.098;2023-06-14T02:08:31;9.55;;;3.67;;
63259;SDS011;49390;51.380;0.098;2023-06-14T02:11:00;7.05;;;3.55;;
63259;SDS011;49390;51.380;0.098;2023-06-14T02:13:30;10.40;;;3.50;;
63259;SDS011;49390;51.380;0.098;2023-06-14T02:15:58;10.38;;;3.60;;
63259;SDS011;49390;51.380;0.098;2023-06-14T02:18:30;9.07;;;3.58;;
63259;SDS011;49390;51.380;0.098;2023-06-14T02:21:01;8.95;;;3.40;;
63259;SDS011;49390;51.380;0.098;2023-06-14T02:23:29;8.18;;;3.33;;
63259;SDS011;49390;51.380;0.098;2023-06-14T02:26:02;9.55;;;3.70;;
63259;SDS011;49390;51.380;0.098;2023-06-14T02:28:30;7.25;;;3.65;;
63259;SDS011;49390;51.380;0.098;2023-06-14T02:31:01;9.05;;;3.78;;
63259;SDS011;49390;51.380;0.098;2023-06-14T02:33:31;8.52;;;3.30;;
63259;SDS011;49390;51.380;0.098;2023-06-14T02:36:06;7.25;;;3.60;;
63259;SDS011;49390;51.380;0.098;2023-06-14T02:38:36;8.75;;;3.63;;
63259;SDS011;49390;51.380;0.098;2023-06-14T02:41:09;9.95;;;3.65;;
63259;SDS011;49390;51.380;0.098;2023-06-14T02:43:39;8.52;;;3.58;;
63259;SDS011;49390;51.380;0.098;2023-06-14T02:46:09;12.13;;;3.58;;
63259;SDS011;49390;51.380;0.098;2023-06-14T02:48:44;9.60;;;3.50;;
63259;SDS011;49390;51.380;0.098;2023-06-14T02:51:13;10.55;;;3.80;;
63259;SDS011;49390;51.380;0.098;2023-06-14T02:53:43;7.97;;;4.38;;
63259;SDS011;49390;51.380;0.098;2023-06-14T02:56:11;9.60;;;3.50;;
63259;SDS011;49390;51.380;0.098;2023-06-14T02:58:40;10.40;;;4.20;;
63259;SDS011;49390;51.380;0.098;2023-06-14T03:01:10;7.78;;;3.88;;
63259;SDS011;49390;51.380;0.098;2023-06-14T03:03:46;8.23;;;3.60;;
63259;SDS011;49390;51.380;0.098;2023-06-14T03:06:17;10.80;;;4.05;;
63259;SDS011;49390;51.380;0.098;2023-06-14T03:08:52;12.82;;;3.95;;
63259;SDS011;49390;51.380;0.098;2023-06-14T03:11:23;11.05;;;4.07;;
63259;SDS011;49390;51.380;0.098;2023-06-14T03:13:53;8.95;;;4.00;;
63259;SDS011;49390;51.380;0.098;2023-06-14T03:16:25;7.35;;;3.90;;
63259;SDS011;49390;51.380;0.098;2023-06-14T03:18:56;10.57;;;3.50;;
63259;SDS011;49390;51.380;0.098;2023-06-14T03:21:31;9.27;;;3.75;;
63259;SDS011;49390;51.380;0.098;2023-06-14T03:24:03;8.50;;;3.85;;
63259;SDS011;49390;51.380;0.098;2023-06-14T03:26:33;12.07;;;4.07;;
63259;SDS011;49390;51.380;0.098;2023-06-14T03:29:06;9.50;;;4.05;;
63259;SDS011;49390;51.380;0.098;2023-06-14T03:31:41;8.43;;;3.65;;
63259;SDS011;49390;51.380;0.098;2023-06-14T03:34:34;7.50;;;3.70;;
63259;SDS011;49390;51.380;0.098;2023-06-14T03:37:03;11.13;;;3.88;;
63259;SDS011;49390;51.380;0.098;2023-06-14T03:42:03;9.60;;;3.70;;
63259;SDS011;49390;51.380;0.098;2023-06-14T03:44:34;8.88;;;4.20;;
63259;SDS011;49390;51.380;0.098;2023-06-14T03:47:02;9.20;;;3.75;;
63259;SDS011;49390;51.380;0.098;2023-06-14T03:49:33;8.75;;;4.00;;
63259;SDS011;49390;51.380;0.098;2023-06-14T03:52:01;9.20;;;4.18;;
63259;SDS011;49390;51.380;0.098;2023-06-14T03:54:33;8.60;;;4.10;;
63259;SDS011;49390;51.380;0.098;2023-06-14T03:57:06;8.02;;;4.10;;
63259;SDS011;49390;51.380;0.098;2023-06-14T03:59:38;9.90;;;3.72;;
63259;SDS011;49390;51.380;0.098;2023-06-14T04:02:10;7.72;;;4.10;;
63259;SDS011;49390;51.380;0.098;2023-06-14T04:04:46;8.00;;;3.90;;
63259;SDS011;49390;51.380;0.098;2023-06-14T04:07:15;13.50;;;4.13;;
63259;SDS011;49390;51.380;0.098;2023-06-14T04:09:49;9.47;;;4.00;;
63259;SDS011;49390;51.380;0.098;2023-06-14T04:12:19;6.88;;;4.20;;
63259;SDS011;49390;51.380;0.098;2023-06-14T04:14:47;9.75;;;4.15;;
63259;SDS011;49390;51.380;0.098;2023-06-14T04:17:20;11.18;;;4.22;;
63259;SDS011;49390;51.380;0.098;2023-06-14T04:19:52;10.52;;;4.57;;
63259;SDS011;49390;51.380;0.098;2023-06-14T04:22:22;8.25;;;4.18;;
63259;SDS011;49390;51.380;0.098;2023-06-14T04:24:59;10.73;;;3.97;;
63259;SDS011;49390;51.380;0.098;2023-06-14T04:27:32;10.50;;;5.22;;
63259;SDS011;49390;51.380;0.098;2023-06-14T04:30:04;9.10;;;4.28;;
63259;SDS011;49390;51.380;0.098;2023-06-14T04:32:41;10.98;;;4.90;;
63259;SDS011;49390;51.380;0.098;2023-06-14T04:35:15;7.80;;;4.32;;
63259;SDS011;49390;51.380;0.098;2023-06-14T04:37:48;9.40;;;4.45;;
63259;SDS011;49390;51.380;0.098;2023-06-14T04:40:17;10.55;;;4.72;;
63259;SDS011;49390;51.380;0.098;2023-06-14T04:42:45;9.68;;;4.80;;
63259;SDS011;49390;51.380;0.098;2023-06-14T04:45:15;9.50;;;4.40;;
63259;SDS011;49390;51.380;0.098;2023-06-14T04:47:49;9.35;;;4.63;;
63259;SDS011;49390;51.380;0.098;2023-06-14T04:50:29;7.85;;;4.55;;
63259;SDS011;49390;51.380;0.098;2023-06-14T04:53:02;9.15;;;4.60;;
63259;SDS011;49390;51.380;0.098;2023-06-14T04:55:30;9.82;;;4.88;;
63259;SDS011;49390;51.380;0.098;2023-06-14T04:57:58;11.00;;;4.70;;
63259;SDS011;49390;51.380;0.098;2023-06-14T05:00:28;9.13;;;4.80;;
63259;SDS011;49390;51.380;0.098;2023-06-14T05:02:59;8.82;;;5.25;;
63259;SDS011;49390;51.380;0.098;2023-06-14T05:05:29;11.63;;;5.15;;
63259;SDS011;49390;51.380;0.098;2023-06-14T05:07:57;11.23;;;5.03;;
63259;SDS011;49390;51.380;0.098;2023-06-14T05:10:27;8.55;;;4.82;;
63259;SDS011;49390;51.380;0.098;2023-06-14T05:12:58;11.70;;;4.85;;
63259;SDS011;49390;51.380;0.098;2023-06-14T05:15:29;13.75;;;5.55;;
63259;SDS011;49390;51.380;0.098;2023-06-14T05:17:57;8.82;;;5.00;;
63259;SDS011;49390;51.380;0.098;2023-06-14T05:20:25;10.70;;;5.13;;
63259;SDS011;49390;51.380;0.098;2023-06-14T05:22:54;10.35;;;4.75;;
63259;SDS011;49390;51.380;0.098;2023-06-14T05:25:22;8.25;;;4.88;;
63259;SDS011;49390;51.380;0.098;2023-06-14T05:27:50;8.63;;;5.35;;
63259;SDS011;49390;51.380;0.098;2023-06-14T05:30:20;11.00;;;5.18;;
63259;SDS011;49390;51.380;0.098;2023-06-14T05:32:54;13.38;;;6.10;;
63259;SDS011;49390;51.380;0.098;2023-06-14T05:35:27;8.95;;;5.10;;
63259;SDS011;49390;51.380;0.098;2023-06-14T05:37:58;13.43;;;5.13;;
63259;SDS011;49390;51.380;0.098;2023-06-14T05:40:30;13.00;;;5.55;;
63259;SDS011;49390;51.380;0.098;2023-06-14T05:43:01;12.27;;;4.65;;
63259;SDS011;49390;51.380;0.098;2023-06-14T05:45:31;8.70;;;4.80;;
63259;SDS011;49390;51.380;0.098;2023-06-14T05:48:04;9.10;;;4.97;;
63259;SDS011;49390;51.380;0.098;2023-06-14T05:50:34;11.45;;;5.03;;
63259;SDS011;49390;51.380;0.098;2023-06-14T05:53:10;10.40;;;5.70;;
63259;SDS011;49390;51.380;0.098;2023-06-14T05:55:38;10.02;;;5.15;;
63259;SDS011;49390;51.380;0.098;2023-06-14T05:58:08;10.07;;;4.90;;
63259;SDS011;49390;51.380;0.098;2023-06-14T06:00:36;12.43;;;4.95;;
63259;SDS011;49390;51.380;0.098;2023-06-14T06:03:04;15.70;;;5.28;;
63259;SDS011;49390;51.380;0.098;2023-06-14T06:05:35;10.13;;;5.45;;
63259;SDS011;49390;51.380;0.098;2023-06-14T06:08:03;8.68;;;4.88;;
63259;SDS011;49390;51.380;0.098;2023-06-14T06:10:31;9.82;;;5.38;;
63259;SDS011;49390;51.380;0.098;2023-06-14T06:13:02;9.88;;;4.90;;
63259;SDS011;49390;51.380;0.098;2023-06-14T06:15:38;13.35;;;5.50;;
63259;SDS011;49390;51.380;0.098;2023-06-14T06:18:10;10.30;;;5.13;;
63259;SDS011;49390;51.380;0.098;2023-06-14T06:20:41;11.07;;;5.50;;
63259;SDS011;49390;51.380;0.098;2023-06-14T06:23:09;11.80;;;5.03;;
63259;SDS011;49390;51.380;0.098;2023-06-14T06:25:45;9.63;;;5.75;;
63259;SDS011;49390;51.380;0.098;2023-06-14T06:28:18;13.68;;;6.00;;
63259;SDS011;49390;51.380;0.098;2023-06-14T06:30:46;16.13;;;5.75;;
63259;SDS011;49390;51.380;0.098;2023-06-14T06:33:19;8.82;;;4.75;;
63259;SDS011;49390;51.380;0.098;2023-06-14T06:35:50;10.10;;;5.25;;
63259;SDS011;49390;51.380;0.098;2023-06-14T06:38:18;15.77;;;6.45;;
63259;SDS011;49390;51.380;0.098;2023-06-14T06:40:46;14.05;;;5.55;;
63259;SDS011;49390;51.380;0.098;2023-06-14T06:43:14;12.20;;;4.72;;
63259;SDS011;49390;51.380;0.098;2023-06-14T06:45:47;10.52;;;5.00;;
63259;SDS011;49390;51.380;0.098;2023-06-14T06:48:15;10.40;;;5.03;;
63259;SDS011;49390;51.380;0.098;2023-06-14T06:50:44;12.32;;;5.10;;
63259;SDS011;49390;51.380;0.098;2023-06-14T06:53:18;12.35;;;5.50;;
63259;SDS011;49390;51.380;0.098;2023-06-14T06:55:56;10.70;;;5.65;;
63259;SDS011;49390;51.380;0.098;2023-06-14T06:58:25;11.38;;;5.72;;
63259;SDS011;49390;51.380;0.098;2023-06-14T07:00:56;16.55;;;5.57;;
63259;SDS011;49390;51.380;0.098;2023-06-14T07:03:29;13.98;;;5.72;;
63259;SDS011;49390;51.380;0.098;2023-06-14T07:05:57;11.60;;;5.25;;
63259;SDS011;49390;51.380;0.098;2023-06-14T07:08:28;13.05;;;5.15;;
63259;SDS011;49390;51.380;0.098;2023-06-14T07:10:58;12.07;;;5.33;;
63259;SDS011;49390;51.380;0.098;2023-06-14T07:17:44;11.80;;;5.07;;
63259;SDS011;49390;51.380;0.098;2023-06-14T07:20:14;8.93;;;5.28;;
63259;SDS011;49390;51.380;0.098;2023-06-14T07:22:43;11.57;;;5.25;;
63259;SDS011;49390;51.380;0.098;2023-06-14T07:25:12;14.82;;;6.00;;
63259;SDS011;49390;51.380;0.098;2023-06-14T07:27:47;11.70;;;5.10;;
63259;SDS011;49390;51.380;0.098;2023-06-14T07:30:16;11.95;;;5.68;;
63259;SDS011;49390;51.380;0.098;2023-06-14T07:32:44;10.85;;;5.80;;
63259;SDS011;49390;51.380;0.098;2023-06-14T07:35:12;14.50;;;5.95;;
63259;SDS011;49390;51.380;0.098;2023-06-14T07:37:43;13.60;;;6.47;;
63259;SDS011;49390;51.380;0.098;2023-06-14T07:40:11;15.10;;;6.07;;
63259;SDS011;49390;51.380;0.098;2023-06-14T07:42:42;11.52;;;5.95;;
63259;SDS011;49390;51.380;0.098;2023-06-14T07:45:15;12.98;;;5.88;;
63259;SDS011;49390;51.380;0.098;2023-06-14T07:47:46;9.13;;;6.25;;
63259;SDS011;49390;51.380;0.098;2023-06-14T07:50:18;13.98;;;6.20;;
63259;SDS011;49390;51.380;0.098;2023-06-14T07:52:45;11.93;;;6.60;;
63259;SDS011;49390;51.380;0.098;2023-06-14T07:55:15;15.40;;;6.20;;
63259;SDS011;49390;51.380;0.098;2023-06-14T07:57:44;13.63;;;6.43;;
63259;SDS011;49390;51.380;0.098;2023-06-14T08:00:14;12.75;;;6.22;;
63259;SDS011;49390;51.380;0.098;2023-06-14T08:02:45;12.50;;;5.90;;
63259;SDS011;49390;51.380;0.098;2023-06-14T08:05:21;13.85;;;6.00;;
63259;SDS011;49390;51.380;0.098;2023-06-14T08:07:51;12.65;;;6.43;;
63259;SDS011;49390;51.380;0.098;2023-06-14T08:10:19;11.75;;;6.10;;
63259;SDS011;49390;51.380;0.098;2023-06-14T08:15:18;10.20;;;5.68;;
63259;SDS011;49390;51.380;0.098;2023-06-14T08:17:49;13.40;;;5.97;;
63259;SDS011;49390;51.380;0.098;2023-06-14T08:22:54;12.82;;;6.68;;
63259;SDS011;49390;51.380;0.098;2023-06-14T08:25:29;11.50;;;7.35;;
63259;SDS011;49390;51.380;0.098;2023-06-14T08:27:58;14.90;;;6.40;;
63259;SDS011;49390;51.380;0.098;2023-06-14T08:30:27;15.05;;;6.95;;
63259;SDS011;49390;51.380;0.098;2023-06-14T08:32:57;12.65;;;6.72;;
63259;SDS011;49390;51.380;0.098;2023-06-14T08:35:45;14.85;;;6.57;;
63259;SDS011;49390;51.380;0.098;2023-06-14T08:38:13;14.93;;;7.38;;
63259;SDS011;49390;51.380;0.098;2023-06-14T08:40:41;14.90;;;6.43;;
63259;SDS011;49390;51.380;0.098;2023-06-14T08:45:40;15.82;;;6.45;;
63259;SDS011;49390;51.380;0.098;2023-06-14T08:48:10;11.57;;;6.28;;
63259;SDS011;49390;51.380;0.098;2023-06-14T08:50:39;14.73;;;7.18;;
63259;SDS011;49390;51.380;0.098;2023-06-14T08:53:09;12.68;;;6.68;;
63259;SDS011;49390;51.380;0.098;2023-06-14T08:55:43;12.35;;;6.60;;
63259;SDS011;49390;51.380;0.098;2023-06-14T08:58:19;13.95;;;6.65;;
63259;SDS011;49390;51.380;0.098;2023-06-14T09:00:47;12.85;;;6.53;;
63259;SDS011;49390;51.380;0.098;2023-06-14T09:03:17;13.15;;;6.97;;
63259;SDS011;49390;51.380;0.098;2023-06-14T09:05:48;13.48;;;6.18;;
63259;SDS011;49390;51.380;0.098;2023-06-14T09:09:17;10.77;;;6.07;;
63259;SDS011;49390;51.380;0.098;2023-06-14T09:11:45;11.77;;;6.25;;
63259;SDS011;49390;51.380;0.098;2023-06-14T09:14:13;15.45;;;6.85;;
63259;SDS011;49390;51.380;0.098;2023-06-14T09:16:41;10.93;;;6.07;;
63259;SDS011;49390;51.380;0.098;2023-06-14T09:19:13;9.88;;;5.95;;
63259;SDS011;49390;51.380;0.098;2023-06-14T09:21:49;13.07;;;6.03;;
63259;SDS011;49390;51.380;0.098;2023-06-14T09:24:23;13.07;;;7.15;;
63259;SDS011;49390;51.380;0.098;2023-06-14T09:26:53;12.68;;;6.15;;
63259;SDS011;49390;51.380;0.098;2023-06-14T09:29:23;13.45;;;6.80;;
63259;SDS011;49390;51.380;0.098;2023-06-14T09:31:51;11.65;;;6.45;;
63259;SDS011;49390;51.380;0.098;2023-06-14T09:34:22;14.23;;;6.55;;
63259;SDS011;49390;51.380;0.098;2023-06-14T09:36:50;13.27;;;6.65;;
63259;SDS011;49390;51.380;0.098;2023-06-14T09:39:18;12.63;;;6.03;;
63259;SDS011;49390;51.380;0.098;2023-06-14T09:41:47;13.48;;;6.82;;
63259;SDS011;49390;51.380;0.098;2023-06-14T09:44:14;10.50;;;5.88;;
63259;SDS011;49390;51.380;0.098;2023-06-14T09:46:54;13.07;;;6.28;;
63259;SDS011;49390;51.380;0.098;2023-06-14T09:49:23;12.35;;;6.63;;
63259;SDS011;49390;51.380;0.098;2023-06-14T09:51:55;14.40;;;7.07;;
63259;SDS011;49390;51.380;0.098;2023-06-14T09:54:25;15.13;;;7.07;;
63259;SDS011;49390;51.380;0.098;2023-06-14T09:56:58;14.88;;;7.07;;
63259;SDS011;49390;51.380;0.098;2023-06-14T09:59:32;11.80;;;6.47;;
63259;SDS011;49390;51.380;0.098;2023-06-14T10:02:05;13.40;;;7.35;;
63259;SDS011;49390;51.380;0.098;2023-06-14T10:04:58;18.38;;;7.30;;
63259;SDS011;49390;51.380;0.098;2023-06-14T10:10:27;17.93;;;7.40;;
63259;SDS011;49390;51.380;0.098;2023-06-14T10:12:55;11.88;;;7.30;;
63259;SDS011;49390;51.380;0.098;2023-06-14T10:18:19;12.18;;;7.05;;
63259;SDS011;49390;51.380;0.098;2023-06-14T10:23:56;12.90;;;6.45;;
63259;SDS011;49390;51.380;0.098;2023-06-14T10:26:32;12.73;;;6.40;;
63259;SDS011;49390;51.380;0.098;2023-06-14T10:29:10;13.48;;;6.55;;
63259;SDS011;49390;51.380;0.098;2023-06-14T10:31:44;12.73;;;6.85;;
63259;SDS011;49390;51.380;0.098;2023-06-14T10:34:25;9.30;;;6.40;;
63259;SDS011;49390;51.380;0.098;2023-06-14T10:39:30;12.00;;;6.53;;
63259;SDS011;49390;51.380;0.098;2023-06-14T10:42:02;12.65;;;7.30;;
63259;SDS011;49390;51.380;0.098;2023-06-14T10:44:33;12.48;;;6.97;;
63259;SDS011;49390;51.380;0.098;2023-06-14T10:47:21;11.60;;;7.22;;
63259;SDS011;49390;51.380;0.098;2023-06-14T10:52:34;12.52;;;7.45;;
63259;SDS011;49390;51.380;0.098;2023-06-14T10:57:53;13.63;;;7.07;;
63259;SDS011;49390;51.380;0.098;2023-06-14T11:00:27;12.63;;;7.18;;
63259;SDS011;49390;51.380;0.098;2023-06-14T11:11:00;10.93;;;6.25;;
63259;SDS011;49390;51.380;0.098;2023-06-14T11:13:33;9.57;;;6.70;;
63259;SDS011;49390;51.380;0.098;2023-06-14T11:16:14;11.05;;;6.80;;
63259;SDS011;49390;51.380;0.098;2023-06-14T11:18:48;13.63;;;7.15;;
63259;SDS011;49390;51.380;0.098;2023-06-14T11:21:17;15.05;;;7.65;;
63259;SDS011;49390;51.380;0.098;2023-06-14T11:23:49;16.70;;;7.63;;
63259;SDS011;49390;51.380;0.098;2023-06-14T11:26:29;11.77;;;6.90;;
63259;SDS011;49390;51.380;0.098;2023-06-14T11:29:02;12.40;;;7.45;;
63259;SDS011;49390;51.380;0.098;2023-06-14T11:31:37;11.90;;;7.28;;
63259;SDS011;49390;51.380;0.098;2023-06-14T11:34:05;12.68;;;7.88;;
63259;SDS011;49390;51.380;0.098;2023-06-14T11:36:34;14.05;;;6.72;;
63259;SDS011;49390;51.380;0.098;2023-06-14T11:39:04;10.05;;;6.90;;
63259;SDS011;49390;51.380;0.098;2023-06-14T11:41:39;14.20;;;7.80;;
63259;SDS011;49390;51.380;0.098;2023-06-14T11:44:11;12.73;;;7.55;;
63259;SDS011;49390;51.380;0.098;2023-06-14T11:46:39;11.35;;;6.80;;
63259;SDS011;49390;51.380;0.098;2023-06-14T11:49:07;12.05;;;7.45;;
63259;SDS011;49390;51.380;0.098;2023-06-14T11:51:38;13.88;;;7.80;;
63259;SDS011;49390;51.380;0.098;2023-06-14T11:54:06;12.00;;;7.10;;
63259;SDS011;49390;51.380;0.098;2023-06-14T11:56:36;10.68;;;6.70;;
63259;SDS011;49390;51.380;0.098;2023-06-14T11:59:04;11.80;;;6.80;;
63259;SDS011;49390;51.380;0.098;2023-06-14T12:01:36;12.45;;;7.45;;
63259;SDS011;49390;51.380;0.098;2023-06-14T12:04:08;9.68;;;7.22;;
63259;SDS011;49390;51.380;0.098;2023-06-14T12:06:36;12.43;;;7.60;;
63259;SDS011;49390;51.380;0.098;2023-06-14T12:11:40;16.02;;;7.43;;
63259;SDS011;49390;51.380;0.098;2023-06-14T12:14:09;10.65;;;7.00;;
63259;SDS011;49390;51.380;0.098;2023-06-14T12:16:41;13.13;;;6.95;;
63259;SDS011;49390;51.380;0.098;2023-06-14T12:19:13;13.55;;;6.95;;
63259;SDS011;49390;51.380;0.098;2023-06-14T12:21:48;10.35;;;6.55;;
63259;SDS011;49390;51.380;0.098;2023-06-14T12:24:16;11.52;;;6.85;;
63259;SDS011;49390;51.380;0.098;2023-06-14T12:29:18;12.77;;;8.18;;
63259;SDS011;49390;51.380;0.098;2023-06-14T12:31:47;11.32;;;6.53;;
63259;SDS011;49390;51.380;0.098;2023-06-14T12:34:15;12.25;;;7.50;;
63259;SDS011;49390;51.380;0.098;2023-06-14T12:36:43;10.35;;;6.72;;
63259;SDS011;49390;51.380;0.098;2023-06-14T12:39:13;11.60;;;6.55;;
63259;SDS011;49390;51.380;0.098;2023-06-14T12:41:44;15.25;;;7.85;;
63259;SDS011;49390;51.380;0.098;2023-06-14T12:44:16;12.57;;;7.75;;
63259;SDS011;49390;51.380;0.098;2023-06-14T12:46:45;10.77;;;6.93;;
63259;SDS011;49390;51.380;0.098;2023-06-14T12:49:14;11.93;;;7.53;;
63259;SDS011;49390;51.380;0.098;2023-06-14T12:51:43;10.48;;;7.22;;
63259;SDS011;49390;51.380;0.098;2023-06-14T12:54:11;9.73;;;6.78;;
63259;SDS011;49390;51.380;0.098;2023-06-14T12:56:40;12.60;;;6.90;;
63259;SDS011;49390;51.380;0.098;2023-06-14T12:59:12;15.23;;;7.38;;
63259;SDS011;49390;51.380;0.098;2023-06-14T13:01:40;9.93;;;6.55;;
63259;SDS011;49390;51.380;0.098;2023-06-14T13:04:14;9.98;;;6.43;;
63259;SDS011;49390;51.380;0.098;2023-06-14T13:06:43;9.80;;;6.63;;
63259;SDS011;49390;51.380;0.098;2023-06-14T13:09:13;14.60;;;8.47;;
63259;SDS011;49390;51.380;0.098;2023-06-14T13:11:43;12.38;;;8.73;;
63259;SDS011;49390;51.380;0.098;2023-06-14T13:14:13;9.35;;;6.40;;
63259;SDS011;49390;51.380;0.098;2023-06-14T13:16:55;11.30;;;6.90;;
63259;SDS011;49390;51.380;0.098;2023-06-14T13:19:23;15.65;;;7.60;;
63259;SDS011;49390;51.380;0.098;2023-06-14T13:21:51;11.75;;;7.35;;
63259;SDS011;49390;51.380;0.098;2023-06-14T13:24:24;9.52;;;6.38;;
63259;SDS011;49390;51.380;0.098;2023-06-14T13:26:53;10.05;;;6.65;;
63259;SDS011;49390;51.380;0.098;2023-06-14T13:29:26;12.50;;;8.27;;
63259;SDS011;49390;51.380;0.098;2023-06-14T13:31:55;11.75;;;8.32;;
63259;SDS011;49390;51.380;0.098;2023-06-14T13:34:26;9.88;;;7.43;;
63259;SDS011;49390;51.380;0.098;2023-06-14T13:36:54;8.35;;;6.53;;
63259;SDS011;49390;51.380;0.098;2023-06-14T13:39:28;9.55;;;6.68;;
63259;SDS011;49390;51.380;0.098;2023-06-14T13:41:59;8.98;;;6.45;;
63259;SDS011;49390;51.380;0.098;2023-06-14T13:44:27;10.18;;;7.13;;
63259;SDS011;49390;51.380;0.098;2023-06-14T13:46:57;10.70;;;6.63;;
63259;SDS011;49390;51.380;0.098;2023-06-14T13:49:25;10.60;;;7.13;;
63259;SDS011;49390;51.380;0.098;2023-06-14T13:51:56;9.55;;;6.57;;
63259;SDS011;49390;51.380;0.098;2023-06-14T13:54:24;9.23;;;6.55;;
63259;SDS011;49390;51.380;0.098;2023-06-14T13:56:57;9.02;;;7.18;;
63259;SDS011;49390;51.380;0.098;2023-06-14T13:59:25;13.02;;;6.80;;
63259;SDS011;49390;51.380;0.098;2023-06-14T14:01:55;11.53;;;7.30;;
63259;SDS011;49390;51.380;0.098;2023-06-14T14:04:28;11.20;;;7.13;;
63259;SDS011;49390;51.380;0.098;2023-06-14T14:06:58;11.13;;;6.95;;
63259;SDS011;49390;51.380;0.098;2023-06-14T14:09:26;9.82;;;6.72;;
63259;SDS011;49390;51.380;0.098;2023-06-14T14:11:54;9.02;;;7.18;;
63259;SDS011;49390;51.380;0.098;2023-06-14T14:14:25;11.25;;;7.53;;
63259;SDS011;49390;51.380;0.098;2023-06-14T14:16:55;10.43;;;7.00;;
63259;SDS011;49390;51.380;0.098;2023-06-14T14:19:22;9.13;;;7.43;;
63259;SDS011;49390;51.380;0.098;2023-06-14T14:24:21;10.55;;;7.22;;
63259;SDS011;49390;51.380;0.098;2023-06-14T14:26:51;11.38;;;7.75;;
63259;SDS011;49390;51.380;0.098;2023-06-14T14:29:23;8.75;;;6.50;;
63259;SDS011;49390;51.380;0.098;2023-06-14T14:31:54;10.43;;;7.25;;
63259;SDS011;49390;51.380;0.098;2023-06-14T14:36:55;8.68;;;6.85;;
63259;SDS011;49390;51.380;0.098;2023-06-14T14:39:23;10.85;;;6.80;;
63259;SDS011;49390;51.380;0.098;2023-06-14T14:41:52;12.85;;;6.93;;
63259;SDS011;49390;51.380;0.098;2023-06-14T14:44:22;10.70;;;6.95;;
63259;SDS011;49390;51.380;0.098;2023-06-14T14:46:50;8.52;;;6.57;;
63259;SDS011;49390;51.380;0.098;2023-06-14T14:49:18;8.35;;;6.38;;
63259;SDS011;49390;51.380;0.098;2023-06-14T14:51:48;11.23;;;5.97;;
63259;SDS011;49390;51.380;0.098;2023-06-14T14:54:18;10.07;;;6.70;;
63259;SDS011;49390;51.380;0.098;2023-06-14T14:56:48;10.63;;;6.45;;
63259;SDS011;49390;51.380;0.098;2023-06-14T14:59:28;11.95;;;6.90;;
63259;SDS011;49390;51.380;0.098;2023-06-14T15:01:56;8.05;;;6.60;;
63259;SDS011;49390;51.380;0.098;2023-06-14T15:04:24;8.65;;;6.50;;
63259;SDS011;49390;51.380;0.098;2023-06-14T15:06:55;7.60;;;6.25;;
63259;SDS011;49390;51.380;0.098;2023-06-14T15:09:25;10.10;;;6.47;;
63259;SDS011;49390;51.380;0.098;2023-06-14T15:11:53;9.45;;;6.30;;
63259;SDS011;49390;51.380;0.098;2023-06-14T15:14:21;9.68;;;6.88;;
63259;SDS011;49390;51.380;0.098;2023-06-14T15:16:49;10.68;;;7.10;;
63259;SDS011;49390;51.380;0.098;2023-06-14T15:19:17;11.50;;;6.68;;
63259;SDS011;49390;51.380;0.098;2023-06-14T15:21:49;9.80;;;6.65;;
63259;SDS011;49390;51.380;0.098;2023-06-14T15:26:38;9.27;;;5.85;;
63259;SDS011;49390;51.380;0.098;2023-06-14T15:29:06;9.82;;;5.85;;
63259;SDS011;49390;51.380;0.098;2023-06-14T15:31:37;10.73;;;6.18;;
63259;SDS011;49390;51.380;0.098;2023-06-14T15:34:05;10.18;;;5.90;;
63259;SDS011;49390;51.380;0.098;2023-06-14T15:36:33;7.47;;;5.80;;
63259;SDS011;49390;51.380;0.098;2023-06-14T15:39:06;11.30;;;6.50;;
63259;SDS011;49390;51.380;0.098;2023-06-14T15:41:34;8.23;;;6.22;;
63259;SDS011;49390;51.380;0.098;2023-06-14T15:44:02;8.68;;;6.00;;
63259;SDS011;49390;51.380;0.098;2023-06-14T15:46:38;13.10;;;6.78;;
63259;SDS011;49390;51.380;0.098;2023-06-14T15:50:45;8.63;;;6.63;;
63259;SDS011;49390;51.380;0.098;2023-06-14T15:53:14;11.95;;;6.35;;
63259;SDS011;49390;51.380;0.098;2023-06-14T15:55:43;8.50;;;6.20;;
63259;SDS011;49390;51.380;0.098;2023-06-14T15:58:11;12.43;;;9.07;;
63259;SDS011;49390;51.380;0.098;2023-06-14T16:00:43;12.25;;;8.80;;
63259;SDS011;49390;51.380;0.098;2023-06-14T16:03:11;9.75;;;6.15;;